Time;durP1;ratioP1;P1;durP2;ratioP2;P2;SDS_P1;SDS_P2;PMS_P1;PMS_P2;Temp;Humidity;BMP_temperature;BMP_pressure;BME280_temperature;BME280_humidity;BME280_pressure;Samples;Min_cycle;Max_cycle;Signal;HPM_P1;HPM_P2
2024/04/10 00:00:14;;;;;;;8.50;6.10;;;;;;;17.93;44.59;99931.06;106033;1258;61194;-77
2024/04/10 00:02:41;;;;;;;8.90;5.80;;;;;;;17.90;44.61;99931.09;106814;1256;74485;-79
2024/04/10 00:05:08;;;;;;;8.70;5.30;;;;;;;17.87;44.70;99932.48;109116;1256;68813;-80
2024/04/10 00:07:35;;;;;;;8.40;5.40;;;;;;;17.86;44.67;99933.81;108779;1254;72872;-82
2024/04/10 00:10:03;;;;;;;8.10;5.10;;;;;;;17.86;44.64;99937.25;106506;1254;61345;-79
2024/04/10 00:12:30;;;;;;;9.40;5.20;;;;;;;17.85;44.61;99940.31;106506;1255;61126;-81
2024/04/10 00:14:56;;;;;;;6.60;5.10;;;;;;;17.84;44.58;99936.58;106361;1259;74686;-82
2024/04/10 00:17:27;;;;;;;9.30;4.60;;;;;;;17.83;44.53;99937.06;106233;1258;68572;-80
2024/04/10 00:19:55;;;;;;;9.00;4.90;;;;;;;17.81;44.55;99933.14;107703;1256;72929;-77
2024/04/10 00:22:21;;;;;;;7.90;4.60;;;;;;;17.79;44.55;99934.18;106218;1254;61337;-80
2024/04/10 00:24:51;;;;;;;6.90;5.20;;;;;;;17.78;44.54;99936.70;106666;1256;61038;-78
2024/04/10 00:27:18;;;;;;;7.70;4.20;;;;;;;17.77;44.47;99938.03;106897;1256;74651;-79
2024/04/10 00:29:44;;;;;;;7.40;5.20;;;;;;;17.76;44.50;99941.21;106036;1257;70495;-80
2024/04/10 00:32:11;;;;;;;4.90;4.30;;;;;;;17.75;44.40;99942.83;106046;1254;72445;-79
2024/04/10 00:34:37;;;;;;;7.50;4.70;;;;;;;17.74;44.35;99944.04;106353;1256;61144;-80
2024/04/10 00:37:05;;;;;;;6.90;4.70;;;;;;;17.75;44.42;99946.09;106356;1257;61317;-81
2024/04/10 00:39:32;;;;;;;6.00;4.20;;;;;;;17.75;44.34;99942.45;106342;1259;184439;-78
2024/04/10 00:42:48;;;;;;;5.30;4.20;;;;;;;17.76;44.40;99946.52;103780;1291;601261;-80
2024/04/10 00:45:15;;;;;;;6.30;4.60;;;;;;;17.71;44.43;99947.27;106347;1271;60226;-80
2024/04/10 00:47:42;;;;;;;7.40;4.90;;;;;;;17.71;44.53;99946.88;106191;1263;59998;-80
2024/04/10 00:50:10;;;;;;;9.40;4.70;;;;;;;17.70;44.56;99943.34;105309;1263;73328;-81
2024/04/10 00:52:37;;;;;;;6.30;5.00;;;;;;;17.68;44.61;99942.63;105796;1263;69984;-81
2024/04/10 00:55:05;;;;;;;9.40;5.20;;;;;;;17.67;44.63;99942.84;106677;1256;71471;-80
2024/04/10 00:57:32;;;;;;;5.80;4.70;;;;;;;17.64;44.74;99939.98;109096;1250;182286;-84
2024/04/10 01:00:00;;;;;;;8.10;4.60;;;;;;;17.62;44.77;99943.71;109409;1250;58819;-83
2024/04/10 01:02:28;;;;;;;7.90;4.20;;;;;;;17.60;44.85;99949.80;109487;1251;71767;-85
2024/04/10 01:04:55;;;;;;;10.30;4.70;;;;;;;17.60;44.89;99949.67;109382;1250;67828;-85
2024/04/10 01:07:23;;;;;;;8.50;5.00;;;;;;;17.59;44.83;99950.84;109419;1253;70356;-83
2024/04/10 01:09:50;;;;;;;7.30;4.90;;;;;;;17.57;44.89;99952.20;109396;1250;59506;-82
2024/04/10 01:12:18;;;;;;;6.50;4.50;;;;;;;17.56;44.97;99949.52;109358;1250;58977;-79
2024/04/10 01:14:45;;;;;;;6.30;4.60;;;;;;;17.53;45.09;99951.16;109281;1250;73878;-79
2024/04/10 01:17:13;;;;;;;9.30;5.20;;;;;;;17.51;45.18;99941.10;109170;1250;68734;-80
2024/04/10 01:19:40;;;;;;;6.90;4.90;;;;;;;17.48;45.21;99952.00;109387;1253;71281;-78
2024/04/10 01:22:07;;;;;;;9.30;4.80;;;;;;;17.44;45.35;99955.89;109286;1250;59017;-78
2024/04/10 01:24:35;;;;;;;8.80;4.60;;;;;;;17.41;45.52;99958.30;109032;1251;59086;-79
2024/04/10 01:27:02;;;;;;;8.00;4.80;;;;;;;17.37;45.53;99958.16;108995;1250;72550;-79
2024/04/10 01:29:31;;;;;;;7.70;5.10;;;;;;;17.33;45.59;99955.06;109068;1251;67740;-80
2024/04/10 01:31:58;;;;;;;7.10;4.90;;;;;;;17.30;45.78;99955.73;109000;1250;70353;-80
2024/04/10 01:34:25;;;;;;;10.10;4.90;;;;;;;17.26;45.82;99957.84;108916;1250;58799;-81
2024/04/10 01:36:53;;;;;;;10.00;5.20;;;;;;;17.20;45.95;99953.59;108922;1251;60419;-79
2024/04/10 01:39:20;;;;;;;7.90;5.50;;;;;;;17.15;46.07;99953.59;109058;1250;72549;-81
2024/04/10 01:41:48;;;;;;;10.20;5.60;;;;;;;17.09;46.25;99952.71;109284;1256;68782;-80
2024/04/10 01:44:15;;;;;;;9.20;4.70;;;;;;;17.04;46.41;99959.65;109440;1252;71465;-82
2024/04/10 01:46:43;;;;;;;10.30;4.80;;;;;;;16.99;46.57;99959.30;108998;1255;58752;-77
2024/04/10 01:49:10;;;;;;;10.90;4.90;;;;;;;16.94;46.69;99967.98;108639;1253;60205;-79
2024/04/10 01:51:37;;;;;;;7.90;5.00;;;;;;;16.89;46.84;99969.36;108847;1252;72564;-79
2024/04/10 01:54:05;;;;;;;8.00;4.70;;;;;;;16.84;46.96;99977.73;109074;1253;69023;-80
2024/04/10 01:56:32;;;;;;;8.50;5.40;;;;;;;16.79;47.04;99976.95;109255;1252;72767;-80
2024/04/10 01:59:00;;;;;;;9.10;5.10;;;;;;;16.76;47.15;99978.84;109320;1253;59309;-82
2024/04/10 02:01:27;;;;;;;6.40;4.50;;;;;;;16.70;47.44;99983.61;108798;1252;58774;-81
2024/04/10 02:03:55;;;;;;;5.50;4.80;;;;;;;16.65;47.50;99987.52;108720;1253;72637;-80
2024/04/10 02:06:23;;;;;;;9.10;4.80;;;;;;;16.60;47.53;99986.18;109368;1253;68846;-80
2024/04/10 02:08:51;;;;;;;8.20;4.80;;;;;;;16.56;47.57;99988.84;109395;1252;73626;-80
2024/04/10 02:11:28;;;;;;;9.40;4.90;;;;;;;16.52;47.80;99991.90;108773;1252;58822;-78
2024/04/10 02:13:57;;;;;;;8.10;4.90;;;;;;;16.47;47.84;99992.13;108093;1253;59269;-79
2024/04/10 02:16:25;;;;;;;7.30;4.80;;;;;;;16.43;48.04;99986.02;107884;1253;72133;-79
2024/04/10 02:18:55;;;;;;;9.40;4.90;;;;;;;16.39;48.10;99983.30;108148;1252;70107;-79
2024/04/10 02:21:22;;;;;;;5.10;4.60;;;;;;;16.36;48.05;99982.26;107734;1253;72892;-78
2024/04/10 02:23:50;;;;;;;7.70;4.50;;;;;;;16.34;48.09;99982.51;107899;1253;60863;-77
2024/04/10 02:26:17;;;;;;;7.00;4.30;;;;;;;16.31;48.08;99982.66;108403;1252;59796;-80
2024/04/10 02:28:45;;;;;;;6.10;4.40;;;;;;;16.30;48.10;99984.75;108536;1253;73972;-81
2024/04/10 02:31:12;;;;;;;5.80;3.90;;;;;;;16.31;48.11;99982.27;108323;1253;68717;-79
2024/04/10 02:33:39;;;;;;;9.80;4.00;;;;;;;16.30;48.11;99980.79;107982;1252;70575;-80
2024/04/10 02:36:08;;;;;;;7.00;4.30;;;;;;;16.32;48.05;99985.74;108113;1253;60543;-78
2024/04/10 02:38:36;;;;;;;5.30;4.80;;;;;;;16.32;48.12;99981.25;108223;1252;60298;-80
2024/04/10 02:41:04;;;;;;;6.60;4.00;;;;;;;16.33;48.02;99980.85;108129;1253;72284;-80
2024/04/10 02:43:32;;;;;;;4.40;3.50;;;;;;;16.33;47.96;99977.10;106878;1256;70978;-77
2024/04/10 02:46:00;;;;;;;4.70;3.60;;;;;;;16.33;47.89;99977.30;107319;1253;72425;-78
2024/04/10 02:48:28;;;;;;;8.70;4.90;;;;;;;16.35;47.68;99983.78;108698;1252;58754;-79
2024/04/10 02:50:56;;;;;;;8.20;3.90;;;;;;;16.36;47.62;99978.50;108952;1252;58767;-82
2024/04/10 02:53:23;;;;;;;10.40;5.40;;;;;;;16.37;47.60;99978.21;108767;1253;72645;-80
2024/04/10 02:55:59;;;;;;;5.00;4.20;;;;;;;16.35;47.49;99973.75;109374;1253;68845;-79
2024/04/10 02:58:26;;;;;;;11.10;4.20;;;;;;;16.38;47.43;99976.58;109371;1252;71466;-81
2024/04/10 03:00:54;;;;;;;5.10;3.50;;;;;;;16.37;47.53;99978.27;109103;1253;58779;-82
2024/04/10 03:03:23;;;;;;;10.00;3.80;;;;;;;16.36;47.55;99973.94;108246;1257;60539;-82
2024/04/10 03:06:03;;;;;;;6.50;4.00;;;;;;;16.35;47.66;99981.97;108815;1253;71946;-77
2024/04/10 03:08:31;;;;;;;11.10;7.60;;;;;;;16.31;47.73;99978.69;108327;1253;69346;-79
2024/04/10 03:10:59;;;;;;;9.30;5.10;;;;;;;16.29;47.86;99979.55;108826;1254;72203;-80
2024/04/10 03:13:27;;;;;;;7.10;3.40;;;;;;;16.26;47.87;99982.56;106712;1259;60549;-77
2024/04/10 03:15:54;;;;;;;7.00;3.80;;;;;;;16.24;47.83;99986.48;106210;1253;60296;-78
2024/04/10 03:18:22;;;;;;;7.00;3.70;;;;;;;16.21;47.87;99984.21;106196;1258;73946;-80
2024/04/10 03:20:49;;;;;;;6.40;4.40;;;;;;;16.17;48.00;99984.98;106345;1258;69201;-79
2024/04/10 03:23:17;;;;;;;5.60;3.40;;;;;;;16.15;48.09;99983.55;106125;1259;71540;-78
2024/04/10 03:25:44;;;;;;;3.90;3.50;;;;;;;16.11;48.22;99984.67;106252;1254;60485;-78
2024/04/10 03:28:11;;;;;;;6.80;3.60;;;;;;;16.08;48.37;99989.26;106146;1259;60396;-77
2024/04/10 03:30:38;;;;;;;4.70;3.40;;;;;;;16.04;48.48;99989.90;106348;1253;72624;-79
2024/04/10 03:33:06;;;;;;;6.50;4.00;;;;;;;16.01;48.54;99991.54;105999;1259;70195;-81
2024/04/10 03:35:33;;;;;;;6.80;3.90;;;;;;;15.98;48.53;99989.33;106334;1257;71357;-77
2024/04/10 03:38:01;;;;;;;6.70;4.10;;;;;;;15.96;48.76;99990.31;106407;1257;60787;-79
2024/04/10 03:40:28;;;;;;;5.00;3.80;;;;;;;15.93;48.83;99993.10;106322;1254;60694;-79
2024/04/10 03:42:55;;;;;;;8.00;5.10;;;;;;;15.91;48.82;99995.83;106280;1257;74345;-77
2024/04/10 03:45:26;;;;;;;8.20;4.00;;;;;;;15.89;48.96;99995.00;105975;1254;69126;-79
2024/04/10 03:47:53;;;;;;;5.60;4.30;;;;;;;15.89;48.95;99996.41;107312;1253;71266;-79
2024/04/10 03:50:20;;;;;;;6.10;3.70;;;;;;;15.90;48.88;99998.85;107959;1253;60162;-79
2024/04/10 03:52:48;;;;;;;4.50;3.60;;;;;;;15.92;48.85;99999.64;108573;1253;59225;-80
2024/04/10 03:55:17;;;;;;;5.50;3.80;;;;;;;15.97;48.85;99998.56;109134;1252;72685;-81
2024/04/10 03:57:47;;;;;;;6.70;4.10;;;;;;;16.04;48.72;100000.33;109022;1256;68844;-80
2024/04/10 04:00:14;;;;;;;7.50;4.10;;;;;;;16.11;48.68;100002.18;107002;1253;74984;-77
2024/04/10 04:02:45;;;;;;;7.30;4.00;;;;;;;16.18;48.56;100007.70;107672;1253;60057;-79
2024/04/10 04:05:12;;;;;;;7.20;3.70;;;;;;;16.23;48.46;100002.98;107488;1257;60323;-80
2024/04/10 04:07:39;;;;;;;6.40;4.20;;;;;;;16.28;48.52;100008.78;107029;1257;75026;-80
2024/04/10 04:10:07;;;;;;;5.70;4.20;;;;;;;16.33;48.26;100008.23;106331;1259;69192;-79
2024/04/10 04:12:34;;;;;;;7.80;4.60;;;;;;;16.36;48.36;100008.83;106046;1251;71655;-79
2024/04/10 04:15:02;;;;;;;5.60;4.20;;;;;;;16.40;48.21;100012.14;106284;1253;60479;-80
2024/04/10 04:17:30;;;;;;;5.70;3.90;;;;;;;16.45;48.21;100009.27;106561;1254;60368;-82
2024/04/10 04:19:57;;;;;;;5.20;4.20;;;;;;;16.55;47.98;100008.52;106276;1251;74812;-81
2024/04/10 04:22:25;;;;;;;6.70;3.80;;;;;;;16.65;47.61;100011.86;106733;1253;71162;-79
2024/04/10 04:24:52;;;;;;;8.70;4.30;;;;;;;16.72;47.36;100012.67;107452;1252;73134;-79
2024/04/10 04:27:20;;;;;;;5.90;3.80;;;;;;;16.79;47.52;100016.67;108167;1253;60416;-80
2024/04/10 04:29:48;;;;;;;7.00;3.80;;;;;;;16.85;47.24;100020.05;106569;1260;60417;-80
2024/04/10 04:32:15;;;;;;;8.70;3.70;;;;;;;16.92;47.01;100023.86;106521;1251;72552;-78
2024/04/10 04:34:42;;;;;;;11.20;4.40;;;;;;;17.00;46.76;100023.35;106410;1257;69986;-79
2024/04/10 04:37:10;;;;;;;5.00;4.20;;;;;;;17.07;46.66;100027.11;106501;1254;71496;-80
2024/04/10 04:39:37;;;;;;;7.00;3.40;;;;;;;17.11;46.53;100027.29;106194;1253;60521;-79
2024/04/10 04:42:05;;;;;;;5.50;3.80;;;;;;;17.16;46.26;100030.94;106117;1260;60567;-77
2024/04/10 04:44:32;;;;;;;5.20;3.90;;;;;;;17.20;46.20;100032.89;105939;1252;72723;-77
2024/04/10 04:47:00;;;;;;;5.20;3.70;;;;;;;17.25;46.12;100031.56;106318;1254;70324;-80
2024/04/10 04:49:28;;;;;;;8.80;4.20;;;;;;;17.31;46.14;100033.30;106223;1252;73032;-77
2024/04/10 04:51:55;;;;;;;7.80;3.90;;;;;;;17.36;46.11;100031.16;108792;1257;58921;-78
2024/04/10 04:54:22;;;;;;;5.70;3.30;;;;;;;17.43;45.96;100032.91;108805;1251;60639;-83
2024/04/10 04:56:49;;;;;;;6.70;3.50;;;;;;;17.50;46.07;100032.45;106539;1253;75788;-80
2024/04/10 04:59:17;;;;;;;6.70;3.90;;;;;;;17.58;45.94;100036.10;106636;1253;68857;-80
2024/04/10 05:01:44;;;;;;;5.20;3.90;;;;;;;17.66;45.88;100037.98;106343;1257;73110;-78
2024/04/10 05:06:58;;;;;;;5.00;4.10;;;;;;;17.83;45.55;100040.89;106165;1251;61334;-78
2024/04/10 05:09:25;;;;;;;6.50;3.90;;;;;;;17.92;45.55;100046.63;106430;1258;75679;-79
2024/04/10 05:11:54;;;;;;;9.00;4.10;;;;;;;17.99;45.52;100040.56;107317;1254;73013;-78
2024/04/10 05:14:22;;;;;;;7.70;4.00;;;;;;;18.10;45.43;100043.42;107019;1257;73453;-80
2024/04/10 05:16:49;;;;;;;7.10;3.80;;;;;;;18.18;45.17;100043.15;106509;1260;61229;-80
2024/04/10 05:19:17;;;;;;;5.30;3.80;;;;;;;18.27;45.05;100042.93;106389;1257;61765;-82
2024/04/10 05:21:44;;;;;;;4.50;3.70;;;;;;;18.38;44.79;100050.02;106746;1251;76677;-82
2024/04/10 05:24:12;;;;;;;5.30;3.80;;;;;;;18.46;44.55;100052.81;106573;1250;72633;-81
2024/04/10 05:26:39;;;;;;;10.00;4.80;;;;;;;18.55;44.43;100050.98;106485;1253;72846;-81
2024/04/10 05:29:07;;;;;;;6.80;3.10;;;;;;;18.64;44.33;100049.75;106217;1257;61437;-80
2024/04/10 05:31:36;;;;;;;4.70;3.20;;;;;;;18.72;44.12;100052.08;106183;1257;61274;-80
2024/04/10 05:34:03;;;;;;;7.50;3.70;;;;;;;18.81;43.98;100058.41;107501;1250;75630;-79
2024/04/10 05:36:31;;;;;;;4.20;3.20;;;;;;;18.90;43.80;100060.23;108411;1252;69401;-78
2024/04/10 05:39:00;;;;;;;6.50;3.70;;;;;;;18.99;43.70;100061.30;106691;1257;72920;-80
2024/04/10 05:41:27;;;;;;;5.30;3.40;;;;;;;19.07;43.42;100058.23;106932;1250;61325;-80
2024/04/10 05:43:55;;;;;;;3.70;3.30;;;;;;;19.15;43.50;100064.48;106698;1250;62083;-82
2024/04/10 05:46:24;;;;;;;6.70;3.10;;;;;;;19.23;43.35;100068.66;106746;1256;72674;-80
2024/04/10 05:48:52;;;;;;;5.10;3.10;;;;;;;19.31;42.95;100072.95;108382;1251;72493;-82
2024/04/10 05:51:20;;;;;;;3.50;2.90;;;;;;;19.39;42.80;100074.84;108184;1251;73537;-83
2024/04/10 05:53:48;;;;;;;7.60;3.10;;;;;;;19.47;42.49;100076.79;107790;1253;61163;-83
2024/04/10 05:56:15;;;;;;;5.40;3.40;;;;;;;19.53;42.25;100081.38;107606;1256;61379;-83
2024/04/10 05:58:43;;;;;;;4.10;3.40;;;;;;;19.58;42.29;100082.41;108376;1251;75568;-83
2024/04/10 06:01:11;;;;;;;4.10;3.70;;;;;;;19.64;42.36;100082.54;107024;1256;69414;-83
2024/04/10 06:03:39;;;;;;;4.70;3.70;;;;;;;19.71;42.12;100083.83;107174;1251;71194;-83
2024/04/10 06:06:13;;;;;;;11.10;3.60;;;;;;;19.77;42.19;100086.11;106926;1254;61320;-83
2024/04/10 06:08:40;;;;;;;9.50;3.80;;;;;;;19.85;42.01;100088.24;106934;1254;59858;-82
2024/04/10 06:11:09;;;;;;;5.50;3.80;;;;;;;19.91;41.98;100087.20;107170;1256;74049;-83
2024/04/10 06:13:37;;;;;;;5.80;3.70;;;;;;;20.01;41.75;100086.73;106891;1261;69605;-84
2024/04/10 06:16:05;;;;;;;3.80;2.80;;;;;;;20.08;41.65;100087.34;107294;1253;71403;-82
2024/04/10 06:18:33;;;;;;;5.50;3.70;;;;;;;20.20;41.38;100092.89;107866;1251;61132;-82
2024/04/10 06:21:02;;;;;;;6.80;3.00;;;;;;;20.31;41.33;100098.23;107452;1256;61307;-81
2024/04/10 06:23:31;;;;;;;6.80;3.80;;;;;;;20.40;40.99;100094.35;106481;1257;76845;-81
2024/04/10 06:25:59;;;;;;;7.50;3.10;;;;;;;20.49;40.96;100093.48;106504;1256;72280;-83
2024/04/10 06:28:27;;;;;;;7.30;3.30;;;;;;;20.57;40.84;100094.77;106389;1256;75465;-81
2024/04/10 06:30:59;;;;;;;7.10;3.30;;;;;;;20.64;40.73;100092.88;106743;1258;61154;-81
2024/04/10 06:33:26;;;;;;;5.90;3.80;;;;;;;20.72;40.69;100092.49;107313;1251;62561;-82
2024/04/10 06:35:58;;;;;;;5.30;3.40;;;;;;;20.80;40.63;100095.39;107806;1251;76887;-82
2024/04/10 06:38:25;;;;;;;6.40;3.40;;;;;;;20.89;40.41;100092.02;107936;1256;69074;-82
2024/04/10 06:40:54;;;;;;;5.80;3.80;;;;;;;21.00;40.52;100096.38;107734;1256;73630;-82
2024/04/10 06:43:22;;;;;;;5.20;3.40;;;;;;;21.09;40.17;100092.40;107781;1257;60217;-81
2024/04/10 06:46:02;;;;;;;4.80;3.20;;;;;;;21.16;40.09;100092.70;108086;1251;61397;-81
2024/04/10 06:48:30;;;;;;;5.40;3.20;;;;;;;21.21;39.97;100091.38;108625;1251;73371;-80
2024/04/10 06:51:02;;;;;;;5.10;3.20;;;;;;;21.26;40.14;100093.98;107523;1252;70020;-82
2024/04/10 06:53:30;;;;;;;3.70;2.90;;;;;;;21.33;39.98;100096.55;106754;1260;74901;-81
2024/04/10 06:56:01;;;;;;;8.30;3.60;;;;;;;21.38;39.86;100097.70;106694;1256;61168;-81
2024/04/10 06:58:29;;;;;;;8.20;3.50;;;;;;;21.42;39.79;100100.36;106662;1256;61160;-81
2024/04/10 07:01:04;;;;;;;4.90;3.10;;;;;;;21.47;39.79;100098.82;106565;1256;73263;-82
2024/04/10 07:03:37;;;;;;;6.20;3.60;;;;;;;21.54;39.80;100102.95;106654;1256;74287;-82
2024/04/10 07:06:09;;;;;;;6.30;3.20;;;;;;;21.59;39.68;100104.11;106496;1251;71093;-83
2024/04/10 07:08:38;;;;;;;5.40;3.50;;;;;;;21.65;39.57;100109.66;106276;1253;61309;-81
2024/04/10 07:11:14;;;;;;;5.60;3.10;;;;;;;21.67;39.52;100108.90;106297;1264;61355;-84
2024/04/10 07:13:53;;;;;;;4.00;3.40;;;;;;;21.70;39.39;100108.19;106220;1257;76714;-81
2024/04/10 07:16:26;;;;;;;7.40;3.30;;;;;;;21.75;39.16;100108.98;107254;1251;71228;-81
2024/04/10 07:18:57;;;;;;;6.20;3.60;;;;;;;21.80;39.26;100106.08;107836;1251;73842;-82
2024/04/10 07:21:25;;;;;;;5.40;3.30;;;;;;;21.90;39.16;100109.95;106665;1258;61233;-80
2024/04/10 07:23:52;;;;;;;8.80;4.00;;;;;;;21.99;39.00;100109.95;107302;1251;61956;-81
2024/04/10 07:26:27;;;;;;;5.70;3.70;;;;;;;22.07;39.00;100114.31;107908;1256;75623;-81
2024/04/10 07:28:55;;;;;;;5.80;3.50;;;;;;;22.16;38.77;100109.91;107650;1251;68962;-81
2024/04/10 07:31:28;;;;;;;5.10;3.40;;;;;;;22.23;38.71;100111.55;109066;1251;71382;-81
2024/04/10 07:33:57;;;;;;;4.60;3.80;;;;;;;22.32;38.68;100107.70;107304;1258;61321;-81
2024/04/10 07:36:25;;;;;;;8.10;3.60;;;;;;;22.45;38.38;100113.24;107280;1256;61286;-82
2024/04/10 07:38:54;;;;;;;6.60;3.50;;;;;;;22.56;38.19;100113.08;107213;1256;76631;-83
2024/04/10 07:41:21;;;;;;;6.80;3.90;;;;;;;22.64;37.93;100117.71;107870;1256;71583;-82
2024/04/10 07:43:49;;;;;;;8.00;4.60;;;;;;;22.67;37.79;100115.77;109010;1251;72512;-82
2024/04/10 07:46:18;;;;;;;8.20;3.60;;;;;;;22.74;37.83;100118.73;109069;1251;61007;-81
2024/04/10 07:48:55;;;;;;;6.00;3.80;;;;;;;22.81;37.78;100124.66;108423;1256;60668;-83
2024/04/10 07:51:24;;;;;;;7.60;3.80;;;;;;;22.91;37.63;100126.70;107888;1251;75505;-82
2024/04/10 07:53:51;;;;;;;9.40;4.20;;;;;;;22.98;37.76;100124.02;107931;1251;69636;-80
2024/04/10 07:56:20;;;;;;;5.30;3.60;;;;;;;23.07;37.47;100124.58;107734;1254;73764;-80
2024/04/10 07:58:48;;;;;;;4.70;3.40;;;;;;;23.17;37.67;100124.64;107626;1251;61187;-81
2024/04/10 08:01:17;;;;;;;7.50;3.90;;;;;;;23.31;37.20;100125.06;107343;1251;61321;-82
2024/04/10 08:03:45;;;;;;;7.10;4.00;;;;;;;23.44;37.13;100121.92;107218;1251;76146;-80
2024/04/10 08:06:13;;;;;;;6.90;4.00;;;;;;;23.54;36.88;100120.43;107180;1252;69488;-80
2024/04/10 08:08:45;;;;;;;7.40;4.10;;;;;;;23.65;36.94;100116.83;106710;1251;72415;-81
2024/04/10 08:11:21;;;;;;;8.00;4.90;;;;;;;23.78;36.67;100115.09;106859;1258;62444;-81
2024/04/10 08:13:50;;;;;;;13.10;5.50;;;;;;;23.88;36.55;100118.33;106916;1256;61225;-80
2024/04/10 08:16:20;;;;;;;9.10;5.80;;;;;;;23.96;36.47;100116.15;106907;1259;75561;-82
2024/04/10 08:18:48;;;;;;;15.80;7.90;;;;;;;24.05;36.08;100114.67;107124;1251;71564;-81
2024/04/10 08:21:16;;;;;;;13.50;7.10;;;;;;;24.12;35.93;100112.02;106699;1251;71401;-80
2024/04/10 08:23:45;;;;;;;10.10;5.70;;;;;;;24.21;36.00;100113.50;106774;1254;61305;-80
2024/04/10 08:26:17;;;;;;;12.40;5.80;;;;;;;24.34;35.82;100116.45;106884;1256;61154;-79
2024/04/10 08:28:48;;;;;;;9.50;5.20;;;;;;;24.46;35.59;100118.52;106587;1251;75817;-80
2024/04/10 08:31:17;;;;;;;5.60;3.80;;;;;;;24.55;35.29;100110.63;106700;1257;72329;-79
2024/04/10 08:33:45;;;;;;;6.80;4.10;;;;;;;24.61;35.03;100120.32;107089;1253;72490;-80
2024/04/10 08:36:14;;;;;;;7.70;4.10;;;;;;;24.64;34.99;100118.02;106841;1267;61210;-80
2024/04/10 08:38:45;;;;;;;8.00;4.20;;;;;;;24.67;35.02;100118.50;106996;1251;61170;-79
2024/04/10 08:41:17;;;;;;;7.00;4.10;;;;;;;24.73;35.12;100125.42;107592;1254;75993;-80
2024/04/10 08:43:47;;;;;;;5.30;3.90;;;;;;;24.84;35.15;100113.50;108429;1253;71115;-81
2024/04/10 08:46:16;;;;;;;6.20;4.00;;;;;;;25.00;35.00;100108.52;107603;1254;71763;-82
2024/04/10 08:48:45;;;;;;;7.30;3.60;;;;;;;25.18;34.88;100108.38;107380;1254;61124;-80
2024/04/10 08:51:14;;;;;;;7.00;4.30;;;;;;;25.30;34.36;100111.58;107535;1259;61355;-84
2024/04/10 08:53:46;;;;;;;4.80;3.30;;;;;;;25.32;34.12;100113.39;107361;1254;73753;-81
2024/04/10 08:56:15;;;;;;;5.50;3.90;;;;;;;25.22;34.33;100113.27;107540;1254;71403;-76
2024/04/10 08:58:44;;;;;;;5.30;3.80;;;;;;;25.19;34.50;100110.18;107937;1253;71605;-81
2024/04/10 09:01:33;;;;;;;8.50;3.90;;;;;;;25.32;34.31;100109.09;107569;1254;61228;-81
2024/04/10 09:04:09;;;;;;;4.60;3.70;;;;;;;25.55;34.17;100106.58;108462;1254;61187;-79
2024/04/10 09:06:38;;;;;;;10.30;3.90;;;;;;;25.79;34.05;100111.02;108018;1254;75597;-82
2024/04/10 09:09:07;;;;;;;5.80;3.70;;;;;;;26.06;33.77;100114.26;107905;1254;71805;-79
2024/04/10 09:11:37;;;;;;;6.00;4.20;;;;;;;26.37;32.95;100120.88;108099;1253;73836;-81
2024/04/10 09:14:10;;;;;;;13.70;4.20;;;;;;;26.73;32.76;100111.31;107449;1254;61265;-82
2024/04/10 09:16:40;;;;;;;5.70;4.00;;;;;;;27.19;32.45;100104.29;106746;1254;61443;-82
2024/04/10 09:19:08;;;;;;;6.40;3.50;;;;;;;27.78;32.03;100110.20;107792;1253;73571;-81
2024/04/10 09:21:36;;;;;;;8.30;3.30;;;;;;;28.31;30.64;100116.20;107791;1254;72935;-80
2024/04/10 09:24:04;;;;;;;6.20;3.50;;;;;;;28.54;30.23;100102.44;108248;1254;75052;-83
2024/04/10 09:26:32;;;;;;;3.50;3.20;;;;;;;28.62;29.78;100116.91;108172;1253;60008;-79
2024/04/10 09:29:09;;;;;;;5.60;3.50;;;;;;;28.60;29.71;100112.64;108167;1253;61134;-80
2024/04/10 09:31:36;;;;;;;7.00;3.80;;;;;;;28.66;30.01;100110.44;107227;1260;74895;-82
2024/04/10 09:34:06;;;;;;;4.60;3.30;;;;;;;28.74;29.80;100119.77;107698;1254;72986;-80
2024/04/10 09:36:34;;;;;;;4.90;3.70;;;;;;;28.79;29.74;100120.77;106854;1254;73613;-80
2024/04/10 09:39:05;;;;;;;7.80;4.00;;;;;;;28.86;29.68;100116.97;109010;1253;59994;-81
2024/04/10 09:41:35;;;;;;;6.40;3.50;;;;;;;29.03;29.49;100115.95;109196;1257;61068;-80
2024/04/10 09:44:03;;;;;;;6.30;3.60;;;;;;;29.21;29.44;100119.33;106861;1254;76602;-80
2024/04/10 09:46:40;;;;;;;8.20;3.50;;;;;;;29.36;29.21;100126.94;107192;1254;71087;-80
2024/04/10 09:49:11;;;;;;;5.30;3.50;;;;;;;29.57;29.12;100109.88;107402;1254;74804;-82
2024/04/10 09:51:41;;;;;;;4.10;3.80;;;;;;;29.89;28.59;100118.95;108009;1251;62211;-80
2024/04/10 09:54:11;;;;;;;8.70;4.10;;;;;;;30.23;28.51;100098.58;107803;1254;61149;-81
2024/04/10 09:56:41;;;;;;;5.30;3.30;;;;;;;30.67;28.01;100101.96;107236;1257;77108;-80
2024/04/10 09:59:10;;;;;;;4.10;3.70;;;;;;;31.08;27.82;100093.73;107005;1251;69696;-81
2024/04/10 10:01:38;;;;;;;5.40;3.30;;;;;;;31.45;27.10;100108.38;106938;1257;73641;-80
2024/04/10 10:04:06;;;;;;;4.10;3.70;;;;;;;31.43;26.79;100110.33;106886;1254;62883;-77
2024/04/10 10:06:34;;;;;;;4.30;3.90;;;;;;;31.10;27.26;100101.20;106659;1256;61959;-80
2024/04/10 10:09:02;;;;;;;4.30;3.50;;;;;;;31.01;27.63;100086.64;107039;1251;76064;-80
2024/04/10 10:11:31;;;;;;;4.60;3.80;;;;;;;31.23;27.46;100098.04;106530;1251;68849;-81
2024/04/10 10:14:03;;;;;;;6.40;3.80;;;;;;;31.42;27.10;100091.84;106649;1251;74669;-80
2024/04/10 10:16:33;;;;;;;3.90;3.40;;;;;;;31.60;26.85;100092.28;106802;1254;61086;-79
2024/04/10 10:19:02;;;;;;;5.80;3.60;;;;;;;31.72;26.58;100109.73;106993;1251;60486;-82
2024/04/10 10:21:30;;;;;;;4.80;3.20;;;;;;;31.70;26.68;100090.96;106860;1254;74819;-78
2024/04/10 10:24:01;;;;;;;8.60;3.50;;;;;;;31.77;26.77;100080.06;107497;1256;70938;-80
2024/04/10 10:26:29;;;;;;;4.10;3.20;;;;;;;31.90;26.47;100101.21;108926;1251;73904;-81
2024/04/10 10:29:03;;;;;;;9.50;4.20;;;;;;;31.82;26.36;100094.80;108875;1253;59071;-77
2024/04/10 10:31:36;;;;;;;4.00;3.40;;;;;;;31.73;26.48;100091.78;108905;1251;61412;-82
2024/04/10 10:34:05;;;;;;;4.00;3.40;;;;;;;31.91;26.26;100103.77;108873;1254;73645;-77
2024/04/10 10:36:35;;;;;;;3.40;3.10;;;;;;;32.06;26.10;100082.55;109072;1251;70003;-80
2024/04/10 10:39:13;;;;;;;6.40;3.80;;;;;;;32.26;25.91;100095.09;109151;1251;71670;-79
2024/04/10 10:41:42;;;;;;;5.80;3.70;;;;;;;32.32;25.63;100102.73;109269;1251;58913;-78
2024/04/10 10:44:10;;;;;;;4.00;3.60;;;;;;;32.27;25.56;100106.33;109140;1251;61181;-81
2024/04/10 10:46:38;;;;;;;6.00;3.40;;;;;;;32.22;25.66;100103.89;108944;1251;73544;-79
2024/04/10 10:49:06;;;;;;;3.50;2.80;;;;;;;32.39;25.64;100089.86;109028;1251;71241;-81
2024/04/10 10:51:35;;;;;;;12.80;3.70;;;;;;;32.62;25.42;100094.98;108988;1253;72693;-82
2024/04/10 10:54:03;;;;;;;4.40;3.20;;;;;;;32.78;25.31;100090.64;109157;1253;59554;-80
2024/04/10 10:56:30;;;;;;;5.20;3.40;;;;;;;32.97;24.85;100091.92;109392;1257;59143;-81
2024/04/10 10:59:10;;;;;;;3.70;3.40;;;;;;;33.01;24.88;100093.86;109441;1251;73512;-82
2024/04/10 11:01:40;;;;;;;4.30;3.50;;;;;;;32.93;24.96;100089.33;109237;1254;71806;-81
2024/04/10 11:04:11;;;;;;;6.90;3.20;;;;;;;32.95;25.24;100080.12;109216;1253;72958;-82
2024/04/10 11:06:41;;;;;;;3.70;3.00;;;;;;;33.17;24.80;100086.42;109050;1251;61072;-83
2024/04/10 11:09:15;;;;;;;4.90;3.60;;;;;;;33.14;24.73;100090.90;108989;1251;59157;-78
2024/04/10 11:11:43;;;;;;;4.00;3.60;;;;;;;32.83;24.92;100090.69;109068;1251;73425;-83
2024/04/10 11:14:13;;;;;;;5.30;3.40;;;;;;;32.61;24.82;100091.10;109097;1251;71619;-81
2024/04/10 11:16:42;;;;;;;4.80;3.60;;;;;;;32.66;24.85;100083.91;108915;1251;73499;-79
2024/04/10 11:19:10;;;;;;;5.50;3.60;;;;;;;32.80;25.05;100078.27;109260;1251;61025;-79
2024/04/10 11:21:37;;;;;;;5.70;3.60;;;;;;;33.04;25.28;100074.92;109303;1251;60951;-79
2024/04/10 11:24:07;;;;;;;4.90;3.30;;;;;;;33.66;24.85;100072.52;109027;1256;75572;-81
2024/04/10 11:26:35;;;;;;;3.90;3.40;;;;;;;34.16;24.34;100080.77;108940;1256;71330;-81
2024/04/10 11:29:02;;;;;;;5.80;3.50;;;;;;;34.42;23.65;100072.92;108920;1251;71372;-81